sensor_id;sensor_type;location;lat;lon;timestamp;P1;durP1;ratioP1;P2;durP2;ratioP2
71606;SDS011;60641;53.556;9.914;2022-12-07T00:01:23;12.80;;;7.30;;
71606;SDS011;60641;53.556;9.914;2022-12-07T00:03:54;12.90;;;7.00;;
71606;SDS011;60641;53.556;9.914;2022-12-07T00:06:33;14.40;;;7.40;;
71606;SDS011;60641;53.556;9.914;2022-12-07T00:09:04;15.70;;;7.50;;
71606;SDS011;60641;53.556;9.914;2022-12-07T00:11:31;12.40;;;6.80;;
71606;SDS011;60641;53.556;9.914;2022-12-07T00:13:59;15.80;;;7.60;;
71606;SDS011;60641;53.556;9.914;2022-12-07T00:16:29;13.00;;;6.80;;
71606;SDS011;60641;53.556;9.914;2022-12-07T00:18:57;13.00;;;7.20;;
71606;SDS011;60641;53.556;9.914;2022-12-07T00:21:26;14.80;;;7.00;;
71606;SDS011;60641;53.556;9.914;2022-12-07T00:23:54;12.70;;;6.90;;
71606;SDS011;60641;53.556;9.914;2022-12-07T00:26:22;11.00;;;6.70;;
71606;SDS011;60641;53.556;9.914;2022-12-07T00:29:00;16.00;;;7.90;;
71606;SDS011;60641;53.556;9.914;2022-12-07T00:31:32;12.80;;;6.50;;
71606;SDS011;60641;53.556;9.914;2022-12-07T00:34:01;13.70;;;7.00;;
71606;SDS011;60641;53.556;9.914;2022-12-07T00:36:28;14.10;;;6.80;;
71606;SDS011;60641;53.556;9.914;2022-12-07T00:38:55;14.40;;;6.50;;
71606;SDS011;60641;53.556;9.914;2022-12-07T00:41:24;12.80;;;6.20;;
71606;SDS011;60641;53.556;9.914;2022-12-07T00:43:52;13.30;;;6.30;;
71606;SDS011;60641;53.556;9.914;2022-12-07T00:46:19;11.40;;;6.40;;
71606;SDS011;60641;53.556;9.914;2022-12-07T00:48:47;11.90;;;6.10;;
71606;SDS011;60641;53.556;9.914;2022-12-07T00:51:15;12.20;;;5.90;;
71606;SDS011;60641;53.556;9.914;2022-12-07T00:53:43;12.70;;;5.60;;
71606;SDS011;60641;53.556;9.914;2022-12-07T00:56:23;11.90;;;5.70;;
71606;SDS011;60641;53.556;9.914;2022-12-07T00:58:52;11.00;;;5.60;;
71606;SDS011;60641;53.556;9.914;2022-12-07T01:01:19;11.30;;;5.50;;
71606;SDS011;60641;53.556;9.914;2022-12-07T01:03:46;12.60;;;6.00;;
71606;SDS011;60641;53.556;9.914;2022-12-07T01:06:16;12.10;;;5.90;;
71606;SDS011;60641;53.556;9.914;2022-12-07T01:08:44;11.10;;;5.50;;
71606;SDS011;60641;53.556;9.914;2022-12-07T01:11:12;11.60;;;5.50;;
71606;SDS011;60641;53.556;9.914;2022-12-07T01:13:40;11.80;;;5.80;;
71606;SDS011;60641;53.556;9.914;2022-12-07T01:16:07;12.30;;;5.50;;
71606;SDS011;60641;53.556;9.914;2022-12-07T01:18:35;10.90;;;5.40;;
71606;SDS011;60641;53.556;9.914;2022-12-07T01:21:06;12.10;;;5.30;;
71606;SDS011;60641;53.556;9.914;2022-12-07T01:23:43;10.30;;;4.80;;
71606;SDS011;60641;53.556;9.914;2022-12-07T01:26:11;10.70;;;5.20;;
71606;SDS011;60641;53.556;9.914;2022-12-07T01:28:38;11.90;;;5.20;;
71606;SDS011;60641;53.556;9.914;2022-12-07T01:31:06;11.60;;;5.10;;
71606;SDS011;60641;53.556;9.914;2022-12-07T01:33:35;12.00;;;5.30;;
71606;SDS011;60641;53.556;9.914;2022-12-07T01:36:36;11.40;;;5.20;;
71606;SDS011;60641;53.556;9.914;2022-12-07T01:39:00;12.50;;;5.40;;
71606;SDS011;60641;53.556;9.914;2022-12-07T01:41:30;11.40;;;5.00;;
71606;SDS011;60641;53.556;9.914;2022-12-07T01:46:36;12.00;;;5.70;;
71606;SDS011;60641;53.556;9.914;2022-12-07T01:49:03;10.60;;;4.90;;
71606;SDS011;60641;53.556;9.914;2022-12-07T01:51:32;10.90;;;5.20;;
71606;SDS011;60641;53.556;9.914;2022-12-07T01:53:58;12.10;;;5.30;;
71606;SDS011;60641;53.556;9.914;2022-12-07T01:56:26;11.40;;;5.10;;
71606;SDS011;60641;53.556;9.914;2022-12-07T01:58:54;12.00;;;4.80;;
71606;SDS011;60641;53.556;9.914;2022-12-07T02:01:21;10.30;;;5.30;;
71606;SDS011;60641;53.556;9.914;2022-12-07T02:03:47;14.00;;;5.00;;
71606;SDS011;60641;53.556;9.914;2022-12-07T02:06:16;11.90;;;4.90;;
71606;SDS011;60641;53.556;9.914;2022-12-07T02:08:45;10.20;;;4.60;;
71606;SDS011;60641;53.556;9.914;2022-12-07T02:11:12;13.20;;;5.30;;
71606;SDS011;60641;53.556;9.914;2022-12-07T02:13:39;9.80;;;4.20;;
71606;SDS011;60641;53.556;9.914;2022-12-07T02:25:41;9.30;;;3.90;;
71606;SDS011;60641;53.556;9.914;2022-12-07T02:27:50;10.70;;;4.20;;
71606;SDS011;60641;53.556;9.914;2022-12-07T02:30:19;11.40;;;3.80;;
71606;SDS011;60641;53.556;9.914;2022-12-07T02:33:00;9.80;;;3.70;;
71606;SDS011;60641;53.556;9.914;2022-12-07T02:35:48;9.30;;;3.70;;
71606;SDS011;60641;53.556;9.914;2022-12-07T02:38:26;7.70;;;3.20;;
71606;SDS011;60641;53.556;9.914;2022-12-07T02:41:04;7.90;;;2.80;;
71606;SDS011;60641;53.556;9.914;2022-12-07T02:43:41;7.60;;;3.10;;
71606;SDS011;60641;53.556;9.914;2022-12-07T02:46:22;9.50;;;2.40;;
71606;SDS011;60641;53.556;9.914;2022-12-07T02:48:51;9.30;;;2.10;;
71606;SDS011;60641;53.556;9.914;2022-12-07T02:51:18;10.40;;;2.30;;
71606;SDS011;60641;53.556;9.914;2022-12-07T02:53:45;8.50;;;2.00;;
71606;SDS011;60641;53.556;9.914;2022-12-07T03:06:53;4.60;;;1.30;;
71606;SDS011;60641;53.556;9.914;2022-12-07T03:12:24;6.50;;;1.30;;
71606;SDS011;60641;53.556;9.914;2022-12-07T03:14:57;8.30;;;1.80;;
71606;SDS011;60641;53.556;9.914;2022-12-07T03:17:28;4.90;;;1.60;;
71606;SDS011;60641;53.556;9.914;2022-12-07T03:19:58;4.00;;;1.30;;
71606;SDS011;60641;53.556;9.914;2022-12-07T03:22:25;8.60;;;1.60;;
71606;SDS011;60641;53.556;9.914;2022-12-07T03:24:57;6.00;;;1.30;;
71606;SDS011;60641;53.556;9.914;2022-12-07T03:27:25;7.40;;;1.80;;
71606;SDS011;60641;53.556;9.914;2022-12-07T03:32:38;6.40;;;1.40;;
71606;SDS011;60641;53.556;9.914;2022-12-07T03:37:55;5.00;;;1.10;;
71606;SDS011;60641;53.556;9.914;2022-12-07T03:43:18;7.90;;;1.10;;
71606;SDS011;60641;53.556;9.914;2022-12-07T03:45:50;8.40;;;1.20;;
71606;SDS011;60641;53.556;9.914;2022-12-07T03:48:42;4.60;;;0.90;;
71606;SDS011;60641;53.556;9.914;2022-12-07T03:53:47;6.20;;;1.10;;
71606;SDS011;60641;53.556;9.914;2022-12-07T03:56:17;5.90;;;0.90;;
71606;SDS011;60641;53.556;9.914;2022-12-07T03:58:44;9.80;;;3.00;;
71606;SDS011;60641;53.556;9.914;2022-12-07T04:01:10;6.80;;;1.90;;
71606;SDS011;60641;53.556;9.914;2022-12-07T04:03:37;8.10;;;2.40;;
71606;SDS011;60641;53.556;9.914;2022-12-07T04:06:04;3.80;;;0.80;;
71606;SDS011;60641;53.556;9.914;2022-12-07T04:08:30;6.90;;;0.90;;
71606;SDS011;60641;53.556;9.914;2022-12-07T04:10:57;4.10;;;0.80;;
71606;SDS011;60641;53.556;9.914;2022-12-07T04:13:23;2.90;;;0.70;;
71606;SDS011;60641;53.556;9.914;2022-12-07T04:15:50;4.10;;;0.90;;
71606;SDS011;60641;53.556;9.914;2022-12-07T04:18:16;3.70;;;0.70;;
71606;SDS011;60641;53.556;9.914;2022-12-07T04:20:43;2.50;;;0.60;;
71606;SDS011;60641;53.556;9.914;2022-12-07T04:23:09;6.40;;;0.90;;
71606;SDS011;60641;53.556;9.914;2022-12-07T04:25:35;6.30;;;1.10;;
71606;SDS011;60641;53.556;9.914;2022-12-07T04:28:02;5.20;;;1.10;;
71606;SDS011;60641;53.556;9.914;2022-12-07T04:30:28;5.40;;;0.80;;
71606;SDS011;60641;53.556;9.914;2022-12-07T04:32:55;4.50;;;0.90;;
71606;SDS011;60641;53.556;9.914;2022-12-07T04:35:21;5.00;;;0.80;;
71606;SDS011;60641;53.556;9.914;2022-12-07T04:37:48;5.40;;;1.10;;
71606;SDS011;60641;53.556;9.914;2022-12-07T04:40:14;2.80;;;0.80;;
71606;SDS011;60641;53.556;9.914;2022-12-07T04:42:41;3.90;;;1.00;;
71606;SDS011;60641;53.556;9.914;2022-12-07T04:45:07;6.80;;;1.20;;
71606;SDS011;60641;53.556;9.914;2022-12-07T04:47:34;4.90;;;1.10;;
71606;SDS011;60641;53.556;9.914;2022-12-07T04:50:00;5.30;;;0.90;;
71606;SDS011;60641;53.556;9.914;2022-12-07T04:52:27;6.00;;;0.90;;
71606;SDS011;60641;53.556;9.914;2022-12-07T04:54:53;7.40;;;1.10;;
71606;SDS011;60641;53.556;9.914;2022-12-07T04:57:20;5.20;;;1.00;;
71606;SDS011;60641;53.556;9.914;2022-12-07T04:59:46;5.80;;;1.00;;
71606;SDS011;60641;53.556;9.914;2022-12-07T05:02:13;5.40;;;1.10;;
71606;SDS011;60641;53.556;9.914;2022-12-07T05:04:39;6.00;;;1.00;;
71606;SDS011;60641;53.556;9.914;2022-12-07T05:07:06;6.50;;;1.00;;
71606;SDS011;60641;53.556;9.914;2022-12-07T05:09:32;3.90;;;1.10;;
71606;SDS011;60641;53.556;9.914;2022-12-07T05:11:58;4.10;;;1.00;;
71606;SDS011;60641;53.556;9.914;2022-12-07T05:14:25;5.10;;;1.10;;
71606;SDS011;60641;53.556;9.914;2022-12-07T05:16:52;8.50;;;1.10;;
71606;SDS011;60641;53.556;9.914;2022-12-07T05:19:19;5.10;;;1.00;;
71606;SDS011;60641;53.556;9.914;2022-12-07T05:21:46;4.50;;;1.10;;
71606;SDS011;60641;53.556;9.914;2022-12-07T05:24:13;6.40;;;1.30;;
71606;SDS011;60641;53.556;9.914;2022-12-07T05:26:40;5.40;;;1.10;;
71606;SDS011;60641;53.556;9.914;2022-12-07T05:29:07;4.50;;;1.10;;
71606;SDS011;60641;53.556;9.914;2022-12-07T05:31:34;3.90;;;1.00;;
71606;SDS011;60641;53.556;9.914;2022-12-07T05:34:00;4.80;;;1.20;;
71606;SDS011;60641;53.556;9.914;2022-12-07T05:36:27;5.30;;;1.00;;
71606;SDS011;60641;53.556;9.914;2022-12-07T05:38:54;6.80;;;1.40;;
71606;SDS011;60641;53.556;9.914;2022-12-07T05:41:21;5.90;;;1.10;;
71606;SDS011;60641;53.556;9.914;2022-12-07T05:44:06;5.20;;;1.10;;
71606;SDS011;60641;53.556;9.914;2022-12-07T05:46:32;5.40;;;1.20;;
71606;SDS011;60641;53.556;9.914;2022-12-07T05:48:59;4.10;;;1.20;;
71606;SDS011;60641;53.556;9.914;2022-12-07T05:51:26;4.10;;;1.00;;
71606;SDS011;60641;53.556;9.914;2022-12-07T05:53:53;3.60;;;0.90;;
71606;SDS011;60641;53.556;9.914;2022-12-07T05:56:19;5.40;;;1.10;;
71606;SDS011;60641;53.556;9.914;2022-12-07T05:58:46;4.90;;;1.10;;
71606;SDS011;60641;53.556;9.914;2022-12-07T06:01:30;4.90;;;1.10;;
71606;SDS011;60641;53.556;9.914;2022-12-07T06:03:57;4.40;;;1.10;;
71606;SDS011;60641;53.556;9.914;2022-12-07T06:06:23;4.40;;;1.00;;
71606;SDS011;60641;53.556;9.914;2022-12-07T06:08:50;5.60;;;1.10;;
71606;SDS011;60641;53.556;9.914;2022-12-07T06:11:17;5.50;;;1.50;;
71606;SDS011;60641;53.556;9.914;2022-12-07T06:14:01;4.50;;;1.20;;
71606;SDS011;60641;53.556;9.914;2022-12-07T06:16:28;5.00;;;1.30;;
71606;SDS011;60641;53.556;9.914;2022-12-07T06:18:55;3.90;;;1.10;;
71606;SDS011;60641;53.556;9.914;2022-12-07T06:21:21;4.60;;;1.20;;
71606;SDS011;60641;53.556;9.914;2022-12-07T06:23:47;4.80;;;1.10;;
71606;SDS011;60641;53.556;9.914;2022-12-07T06:26:14;6.30;;;1.10;;
71606;SDS011;60641;53.556;9.914;2022-12-07T06:28:40;3.90;;;1.00;;
71606;SDS011;60641;53.556;9.914;2022-12-07T06:31:07;3.90;;;0.80;;
71606;SDS011;60641;53.556;9.914;2022-12-07T06:33:33;3.70;;;1.10;;
71606;SDS011;60641;53.556;9.914;2022-12-07T06:36:00;6.30;;;1.00;;
71606;SDS011;60641;53.556;9.914;2022-12-07T06:38:26;7.10;;;1.20;;
71606;SDS011;60641;53.556;9.914;2022-12-07T06:40:53;4.00;;;1.10;;
71606;SDS011;60641;53.556;9.914;2022-12-07T06:43:19;4.30;;;1.00;;
71606;SDS011;60641;53.556;9.914;2022-12-07T06:45:46;5.80;;;1.00;;
71606;SDS011;60641;53.556;9.914;2022-12-07T06:48:12;5.70;;;1.10;;
71606;SDS011;60641;53.556;9.914;2022-12-07T06:50:38;4.10;;;1.00;;
71606;SDS011;60641;53.556;9.914;2022-12-07T06:53:05;5.20;;;1.10;;
71606;SDS011;60641;53.556;9.914;2022-12-07T06:55:31;5.10;;;0.90;;
71606;SDS011;60641;53.556;9.914;2022-12-07T06:57:58;5.90;;;1.20;;
71606;SDS011;60641;53.556;9.914;2022-12-07T07:00:24;6.20;;;1.10;;
71606;SDS011;60641;53.556;9.914;2022-12-07T07:02:51;3.40;;;0.90;;
71606;SDS011;60641;53.556;9.914;2022-12-07T07:05:18;4.30;;;1.00;;
71606;SDS011;60641;53.556;9.914;2022-12-07T07:07:44;5.20;;;0.90;;
71606;SDS011;60641;53.556;9.914;2022-12-07T07:10:11;4.60;;;1.00;;
71606;SDS011;60641;53.556;9.914;2022-12-07T07:12:37;4.60;;;0.90;;
71606;SDS011;60641;53.556;9.914;2022-12-07T07:15:04;9.90;;;1.10;;
71606;SDS011;60641;53.556;9.914;2022-12-07T07:17:30;5.00;;;0.80;;
71606;SDS011;60641;53.556;9.914;2022-12-07T07:19:57;2.90;;;0.70;;
71606;SDS011;60641;53.556;9.914;2022-12-07T07:22:23;6.70;;;1.00;;
71606;SDS011;60641;53.556;9.914;2022-12-07T07:24:50;4.90;;;1.00;;
71606;SDS011;60641;53.556;9.914;2022-12-07T07:27:16;5.90;;;1.00;;
71606;SDS011;60641;53.556;9.914;2022-12-07T07:29:43;4.30;;;0.90;;
71606;SDS011;60641;53.556;9.914;2022-12-07T07:32:09;4.80;;;0.90;;
71606;SDS011;60641;53.556;9.914;2022-12-07T07:34:35;3.90;;;0.80;;
71606;SDS011;60641;53.556;9.914;2022-12-07T07:37:02;4.90;;;0.80;;
71606;SDS011;60641;53.556;9.914;2022-12-07T07:39:28;4.80;;;0.70;;
71606;SDS011;60641;53.556;9.914;2022-12-07T07:41:55;5.00;;;0.90;;
71606;SDS011;60641;53.556;9.914;2022-12-07T07:44:21;6.10;;;0.90;;
71606;SDS011;60641;53.556;9.914;2022-12-07T07:46:48;6.20;;;1.60;;
71606;SDS011;60641;53.556;9.914;2022-12-07T07:49:14;4.70;;;1.10;;
71606;SDS011;60641;53.556;9.914;2022-12-07T07:51:41;5.40;;;1.10;;
71606;SDS011;60641;53.556;9.914;2022-12-07T07:54:07;7.40;;;0.80;;
71606;SDS011;60641;53.556;9.914;2022-12-07T07:56:33;2.60;;;0.70;;
71606;SDS011;60641;53.556;9.914;2022-12-07T07:59:00;6.00;;;0.80;;
71606;SDS011;60641;53.556;9.914;2022-12-07T08:01:26;5.60;;;0.70;;
71606;SDS011;60641;53.556;9.914;2022-12-07T08:03:53;3.70;;;0.60;;
71606;SDS011;60641;53.556;9.914;2022-12-07T08:06:19;2.10;;;0.50;;
71606;SDS011;60641;53.556;9.914;2022-12-07T08:08:46;5.10;;;0.50;;
71606;SDS011;60641;53.556;9.914;2022-12-07T08:11:12;3.50;;;0.60;;
71606;SDS011;60641;53.556;9.914;2022-12-07T08:13:39;3.20;;;0.60;;
71606;SDS011;60641;53.556;9.914;2022-12-07T08:16:06;3.70;;;0.60;;
71606;SDS011;60641;53.556;9.914;2022-12-07T08:18:35;3.60;;;0.60;;
71606;SDS011;60641;53.556;9.914;2022-12-07T08:21:03;4.40;;;0.70;;
71606;SDS011;60641;53.556;9.914;2022-12-07T08:23:30;4.60;;;0.90;;
71606;SDS011;60641;53.556;9.914;2022-12-07T08:26:00;3.70;;;0.60;;
71606;SDS011;60641;53.556;9.914;2022-12-07T08:28:28;3.20;;;0.60;;
71606;SDS011;60641;53.556;9.914;2022-12-07T08:31:04;4.90;;;0.60;;
71606;SDS011;60641;53.556;9.914;2022-12-07T08:33:36;3.90;;;0.50;;
71606;SDS011;60641;53.556;9.914;2022-12-07T08:36:04;3.80;;;0.60;;
71606;SDS011;60641;53.556;9.914;2022-12-07T08:38:33;8.00;;;0.70;;
71606;SDS011;60641;53.556;9.914;2022-12-07T08:41:00;3.80;;;0.60;;
71606;SDS011;60641;53.556;9.914;2022-12-07T08:43:27;2.20;;;0.60;;
71606;SDS011;60641;53.556;9.914;2022-12-07T08:46:07;5.20;;;0.90;;
71606;SDS011;60641;53.556;9.914;2022-12-07T08:48:37;6.40;;;0.80;;
71606;SDS011;60641;53.556;9.914;2022-12-07T08:51:09;5.50;;;0.60;;
71606;SDS011;60641;53.556;9.914;2022-12-07T08:53:37;3.40;;;0.60;;
71606;SDS011;60641;53.556;9.914;2022-12-07T08:56:04;3.80;;;0.70;;
71606;SDS011;60641;53.556;9.914;2022-12-07T08:58:31;5.60;;;0.70;;
71606;SDS011;60641;53.556;9.914;2022-12-07T09:00:59;3.90;;;0.70;;
71606;SDS011;60641;53.556;9.914;2022-12-07T09:03:25;4.10;;;0.90;;
71606;SDS011;60641;53.556;9.914;2022-12-07T09:05:52;4.60;;;0.90;;
71606;SDS011;60641;53.556;9.914;2022-12-07T09:08:19;5.80;;;0.90;;
71606;SDS011;60641;53.556;9.914;2022-12-07T09:10:47;6.80;;;1.00;;
71606;SDS011;60641;53.556;9.914;2022-12-07T09:13:14;4.30;;;0.80;;
71606;SDS011;60641;53.556;9.914;2022-12-07T09:15:41;4.10;;;0.80;;
71606;SDS011;60641;53.556;9.914;2022-12-07T09:18:07;5.00;;;0.70;;
71606;SDS011;60641;53.556;9.914;2022-12-07T09:20:34;3.40;;;0.70;;
71606;SDS011;60641;53.556;9.914;2022-12-07T09:23:01;6.80;;;0.80;;
71606;SDS011;60641;53.556;9.914;2022-12-07T09:25:27;7.00;;;1.00;;
71606;SDS011;60641;53.556;9.914;2022-12-07T09:27:57;4.00;;;0.60;;
71606;SDS011;60641;53.556;9.914;2022-12-07T09:30:24;6.70;;;0.70;;
71606;SDS011;60641;53.556;9.914;2022-12-07T09:32:53;6.40;;;0.80;;
71606;SDS011;60641;53.556;9.914;2022-12-07T09:35:20;2.30;;;0.60;;
71606;SDS011;60641;53.556;9.914;2022-12-07T09:37:46;4.60;;;0.80;;
71606;SDS011;60641;53.556;9.914;2022-12-07T09:40:13;7.60;;;2.00;;
71606;SDS011;60641;53.556;9.914;2022-12-07T09:42:45;5.70;;;0.80;;
71606;SDS011;60641;53.556;9.914;2022-12-07T09:45:15;6.30;;;0.80;;
71606;SDS011;60641;53.556;9.914;2022-12-07T09:47:43;6.90;;;1.30;;
71606;SDS011;60641;53.556;9.914;2022-12-07T09:50:14;7.00;;;0.90;;
71606;SDS011;60641;53.556;9.914;2022-12-07T09:52:43;6.10;;;1.00;;
71606;SDS011;60641;53.556;9.914;2022-12-07T09:55:12;3.90;;;0.70;;
71606;SDS011;60641;53.556;9.914;2022-12-07T09:57:40;5.20;;;1.20;;
71606;SDS011;60641;53.556;9.914;2022-12-07T10:00:20;4.40;;;0.70;;
71606;SDS011;60641;53.556;9.914;2022-12-07T10:02:55;5.40;;;0.80;;
71606;SDS011;60641;53.556;9.914;2022-12-07T10:05:30;5.10;;;0.70;;
71606;SDS011;60641;53.556;9.914;2022-12-07T10:08:01;5.00;;;0.90;;
71606;SDS011;60641;53.556;9.914;2022-12-07T10:10:31;3.10;;;0.60;;
71606;SDS011;60641;53.556;9.914;2022-12-07T10:21:17;7.60;;;0.80;;
71606;SDS011;60641;53.556;9.914;2022-12-07T10:24:05;10.10;;;0.70;;
71606;SDS011;60641;53.556;9.914;2022-12-07T10:26:40;4.50;;;0.50;;
71606;SDS011;60641;53.556;9.914;2022-12-07T10:32:26;3.50;;;0.50;;
71606;SDS011;60641;53.556;9.914;2022-12-07T10:35:22;3.30;;;0.40;;
71606;SDS011;60641;53.556;9.914;2022-12-07T10:37:55;3.90;;;0.50;;
71606;SDS011;60641;53.556;9.914;2022-12-07T10:40:33;4.10;;;0.60;;
71606;SDS011;60641;53.556;9.914;2022-12-07T10:51:37;4.90;;;0.50;;
71606;SDS011;60641;53.556;9.914;2022-12-07T10:57:28;4.10;;;0.70;;
71606;SDS011;60641;53.556;9.914;2022-12-07T11:00:18;6.80;;;0.60;;
71606;SDS011;60641;53.556;9.914;2022-12-07T11:05:56;4.70;;;0.50;;
71606;SDS011;60641;53.556;9.914;2022-12-07T11:08:37;5.60;;;0.50;;
71606;SDS011;60641;53.556;9.914;2022-12-07T11:17:00;6.30;;;0.90;;
71606;SDS011;60641;53.556;9.914;2022-12-07T11:19:49;5.50;;;0.70;;
71606;SDS011;60641;53.556;9.914;2022-12-07T11:30:34;6.40;;;0.80;;
71606;SDS011;60641;53.556;9.914;2022-12-07T11:33:11;5.40;;;0.80;;
71606;SDS011;60641;53.556;9.914;2022-12-07T11:38:27;6.70;;;0.80;;
71606;SDS011;60641;53.556;9.914;2022-12-07T11:41:04;4.00;;;0.50;;
71606;SDS011;60641;53.556;9.914;2022-12-07T11:43:50;4.40;;;0.50;;
71606;SDS011;60641;53.556;9.914;2022-12-07T11:46:20;6.20;;;0.90;;
71606;SDS011;60641;53.556;9.914;2022-12-07T11:52:04;5.20;;;0.70;;
71606;SDS011;60641;53.556;9.914;2022-12-07T11:54:34;7.50;;;0.90;;
71606;SDS011;60641;53.556;9.914;2022-12-07T11:57:02;7.60;;;1.00;;
71606;SDS011;60641;53.556;9.914;2022-12-07T11:59:41;8.80;;;0.80;;
71606;SDS011;60641;53.556;9.914;2022-12-07T12:02:16;5.10;;;0.90;;
71606;SDS011;60641;53.556;9.914;2022-12-07T12:07:24;14.80;;;2.90;;
71606;SDS011;60641;53.556;9.914;2022-12-07T12:10:03;6.40;;;1.00;;
71606;SDS011;60641;53.556;9.914;2022-12-07T12:18:03;6.60;;;1.10;;
71606;SDS011;60641;53.556;9.914;2022-12-07T12:20:50;5.80;;;0.80;;
71606;SDS011;60641;53.556;9.914;2022-12-07T12:26:01;5.20;;;0.60;;
71606;SDS011;60641;53.556;9.914;2022-12-07T12:33:31;6.30;;;0.80;;
71606;SDS011;60641;53.556;9.914;2022-12-07T12:51:47;5.40;;;0.90;;
71606;SDS011;60641;53.556;9.914;2022-12-07T12:59:36;7.30;;;0.90;;
71606;SDS011;60641;53.556;9.914;2022-12-07T13:02:15;6.10;;;0.80;;
71606;SDS011;60641;53.556;9.914;2022-12-07T13:05:02;5.60;;;0.70;;
71606;SDS011;60641;53.556;9.914;2022-12-07T13:23:36;9.00;;;1.00;;
71606;SDS011;60641;53.556;9.914;2022-12-07T13:28:49;7.40;;;0.90;;
71606;SDS011;60641;53.556;9.914;2022-12-07T13:31:26;4.30;;;0.60;;
71606;SDS011;60641;53.556;9.914;2022-12-07T13:33:58;5.60;;;0.80;;
71606;SDS011;60641;53.556;9.914;2022-12-07T13:36:26;12.20;;;0.90;;
71606;SDS011;60641;53.556;9.914;2022-12-07T13:42:06;6.60;;;0.70;;
71606;SDS011;60641;53.556;9.914;2022-12-07T13:44:40;6.00;;;0.60;;
71606;SDS011;60641;53.556;9.914;2022-12-07T13:47:17;7.20;;;0.80;;
71606;SDS011;60641;53.556;9.914;2022-12-07T13:49:56;9.10;;;1.20;;
71606;SDS011;60641;53.556;9.914;2022-12-07T13:52:27;9.20;;;1.30;;
71606;SDS011;60641;53.556;9.914;2022-12-07T13:54:59;6.60;;;0.90;;
71606;SDS011;60641;53.556;9.914;2022-12-07T13:57:28;4.40;;;0.60;;
71606;SDS011;60641;53.556;9.914;2022-12-07T13:59:57;7.20;;;0.60;;
71606;SDS011;60641;53.556;9.914;2022-12-07T14:05:10;5.30;;;0.70;;
71606;SDS011;60641;53.556;9.914;2022-12-07T14:08:41;5.80;;;0.60;;
71606;SDS011;60641;53.556;9.914;2022-12-07T14:10:37;7.10;;;0.70;;
71606;SDS011;60641;53.556;9.914;2022-12-07T14:16:03;6.00;;;0.50;;
71606;SDS011;60641;53.556;9.914;2022-12-07T14:18:36;11.60;;;0.80;;
71606;SDS011;60641;53.556;9.914;2022-12-07T14:21:15;7.90;;;1.20;;
71606;SDS011;60641;53.556;9.914;2022-12-07T14:23:44;10.90;;;0.90;;
71606;SDS011;60641;53.556;9.914;2022-12-07T14:26:12;4.60;;;0.50;;
71606;SDS011;60641;53.556;9.914;2022-12-07T14:28:41;7.80;;;0.80;;
71606;SDS011;60641;53.556;9.914;2022-12-07T14:31:12;6.00;;;0.80;;
71606;SDS011;60641;53.556;9.914;2022-12-07T14:33:40;5.10;;;0.70;;
71606;SDS011;60641;53.556;9.914;2022-12-07T14:36:11;7.70;;;1.40;;
71606;SDS011;60641;53.556;9.914;2022-12-07T14:38:38;5.50;;;0.80;;
71606;SDS011;60641;53.556;9.914;2022-12-07T14:41:06;6.30;;;0.90;;
71606;SDS011;60641;53.556;9.914;2022-12-07T14:43:57;6.70;;;0.80;;
71606;SDS011;60641;53.556;9.914;2022-12-07T14:46:23;3.40;;;0.70;;
71606;SDS011;60641;53.556;9.914;2022-12-07T14:48:50;3.80;;;0.50;;
71606;SDS011;60641;53.556;9.914;2022-12-07T14:51:17;6.30;;;1.10;;
71606;SDS011;60641;53.556;9.914;2022-12-07T14:53:48;5.30;;;0.80;;
71606;SDS011;60641;53.556;9.914;2022-12-07T14:56:15;10.40;;;0.70;;
71606;SDS011;60641;53.556;9.914;2022-12-07T14:58:42;3.60;;;0.80;;
71606;SDS011;60641;53.556;9.914;2022-12-07T15:01:08;5.90;;;0.50;;
71606;SDS011;60641;53.556;9.914;2022-12-07T15:03:35;5.70;;;0.80;;
71606;SDS011;60641;53.556;9.914;2022-12-07T15:06:04;10.00;;;0.70;;
71606;SDS011;60641;53.556;9.914;2022-12-07T15:08:30;4.10;;;0.70;;
71606;SDS011;60641;53.556;9.914;2022-12-07T15:10:57;6.40;;;0.80;;
71606;SDS011;60641;53.556;9.914;2022-12-07T15:13:24;4.50;;;0.70;;
71606;SDS011;60641;53.556;9.914;2022-12-07T15:16:10;7.10;;;1.10;;
71606;SDS011;60641;53.556;9.914;2022-12-07T15:18:37;7.00;;;1.00;;
71606;SDS011;60641;53.556;9.914;2022-12-07T15:21:04;4.40;;;0.70;;
71606;SDS011;60641;53.556;9.914;2022-12-07T15:23:31;6.40;;;0.90;;
71606;SDS011;60641;53.556;9.914;2022-12-07T15:25:57;16.30;;;5.10;;
71606;SDS011;60641;53.556;9.914;2022-12-07T15:28:24;11.40;;;3.60;;
71606;SDS011;60641;53.556;9.914;2022-12-07T15:30:50;16.60;;;6.00;;
71606;SDS011;60641;53.556;9.914;2022-12-07T15:33:17;8.50;;;1.40;;
71606;SDS011;60641;53.556;9.914;2022-12-07T15:35:43;6.00;;;0.90;;
71606;SDS011;60641;53.556;9.914;2022-12-07T15:38:10;4.40;;;0.70;;
71606;SDS011;60641;53.556;9.914;2022-12-07T15:40:37;3.00;;;0.50;;
71606;SDS011;60641;53.556;9.914;2022-12-07T15:43:04;7.30;;;1.10;;
71606;SDS011;60641;53.556;9.914;2022-12-07T15:45:30;7.50;;;0.90;;
71606;SDS011;60641;53.556;9.914;2022-12-07T15:47:57;9.10;;;1.30;;
71606;SDS011;60641;53.556;9.914;2022-12-07T15:50:24;8.20;;;1.20;;
71606;SDS011;60641;53.556;9.914;2022-12-07T15:52:51;6.60;;;1.00;;
71606;SDS011;60641;53.556;9.914;2022-12-07T15:55:18;8.50;;;1.20;;
71606;SDS011;60641;53.556;9.914;2022-12-07T15:57:44;6.00;;;1.20;;
71606;SDS011;60641;53.556;9.914;2022-12-07T16:00:11;6.70;;;1.10;;
71606;SDS011;60641;53.556;9.914;2022-12-07T16:02:38;4.60;;;0.60;;
71606;SDS011;60641;53.556;9.914;2022-12-07T16:05:09;5.90;;;0.80;;
71606;SDS011;60641;53.556;9.914;2022-12-07T16:07:38;6.60;;;1.10;;
71606;SDS011;60641;53.556;9.914;2022-12-07T16:10:05;7.70;;;1.00;;
71606;SDS011;60641;53.556;9.914;2022-12-07T16:12:32;6.30;;;1.40;;
71606;SDS011;60641;53.556;9.914;2022-12-07T16:14:58;7.70;;;0.90;;
71606;SDS011;60641;53.556;9.914;2022-12-07T16:17:25;7.10;;;1.00;;
71606;SDS011;60641;53.556;9.914;2022-12-07T16:19:51;5.90;;;0.90;;
71606;SDS011;60641;53.556;9.914;2022-12-07T16:22:19;8.80;;;1.10;;
71606;SDS011;60641;53.556;9.914;2022-12-07T16:24:45;8.50;;;1.60;;
71606;SDS011;60641;53.556;9.914;2022-12-07T16:27:12;5.00;;;0.90;;
71606;SDS011;60641;53.556;9.914;2022-12-07T16:29:38;7.40;;;1.30;;
71606;SDS011;60641;53.556;9.914;2022-12-07T16:32:05;4.60;;;1.00;;
71606;SDS011;60641;53.556;9.914;2022-12-07T16:34:31;3.40;;;0.90;;
71606;SDS011;60641;53.556;9.914;2022-12-07T16:36:58;4.70;;;0.80;;
71606;SDS011;60641;53.556;9.914;2022-12-07T16:39:24;8.90;;;1.00;;
71606;SDS011;60641;53.556;9.914;2022-12-07T16:41:51;4.30;;;0.80;;
71606;SDS011;60641;53.556;9.914;2022-12-07T16:44:18;4.30;;;1.00;;
71606;SDS011;60641;53.556;9.914;2022-12-07T16:46:45;7.70;;;1.30;;
71606;SDS011;60641;53.556;9.914;2022-12-07T16:49:12;6.20;;;1.10;;
71606;SDS011;60641;53.556;9.914;2022-12-07T16:51:40;5.20;;;1.00;;
71606;SDS011;60641;53.556;9.914;2022-12-07T16:54:12;5.80;;;1.30;;
71606;SDS011;60641;53.556;9.914;2022-12-07T16:56:39;8.00;;;1.40;;
71606;SDS011;60641;53.556;9.914;2022-12-07T16:59:05;7.10;;;1.40;;
71606;SDS011;60641;53.556;9.914;2022-12-07T17:01:32;7.80;;;1.50;;
71606;SDS011;60641;53.556;9.914;2022-12-07T17:04:00;10.20;;;1.90;;
71606;SDS011;60641;53.556;9.914;2022-12-07T17:06:27;12.60;;;3.20;;
71606;SDS011;60641;53.556;9.914;2022-12-07T17:08:54;14.00;;;5.40;;
71606;SDS011;60641;53.556;9.914;2022-12-07T17:11:23;9.00;;;2.30;;
71606;SDS011;60641;53.556;9.914;2022-12-07T17:13:51;8.30;;;2.00;;
71606;SDS011;60641;53.556;9.914;2022-12-07T17:16:36;6.00;;;1.20;;
71606;SDS011;60641;53.556;9.914;2022-12-07T17:19:04;5.80;;;1.30;;
71606;SDS011;60641;53.556;9.914;2022-12-07T17:21:34;6.50;;;1.50;;
71606;SDS011;60641;53.556;9.914;2022-12-07T17:24:02;6.20;;;1.10;;
71606;SDS011;60641;53.556;9.914;2022-12-07T17:26:30;6.00;;;1.30;;